createdAt,value
2018-11-27T00:02:46.223Z,21.87
2018-11-27T00:05:55.538Z,21.70
2018-11-27T00:09:06.617Z,22.97
2018-11-27T00:12:15.838Z,20.07
2018-11-27T00:15:24.937Z,22.30
2018-11-27T00:18:34.021Z,20.90
2018-11-27T00:21:43.340Z,21.10
2018-11-27T00:24:52.592Z,21.30
2018-11-27T00:28:01.665Z,20.07
2018-11-27T00:31:10.961Z,19.50
2018-11-27T00:34:20.025Z,20.57
2018-11-27T00:37:29.372Z,19.60
2018-11-27T00:40:38.681Z,21.50
2018-11-27T00:43:47.849Z,19.40
2018-11-27T00:46:56.967Z,21.00
2018-11-27T00:50:10.616Z,19.83
2018-11-27T00:53:19.754Z,20.27
2018-11-27T00:56:28.984Z,19.23
2018-11-27T00:59:38.261Z,20.93
2018-11-27T01:02:47.423Z,20.70
2018-11-27T01:05:56.622Z,20.37
2018-11-27T01:09:07.964Z,18.53
2018-11-27T01:12:17.234Z,20.57
2018-11-27T01:15:26.410Z,19.87
2018-11-27T01:18:35.706Z,21.53
2018-11-27T01:21:45.008Z,19.83
2018-11-27T01:24:54.108Z,21.93
2018-11-27T01:28:03.410Z,21.93
2018-11-27T01:31:12.454Z,22.47
2018-11-27T01:34:21.657Z,20.70
2018-11-27T01:37:30.871Z,20.93
2018-11-27T01:40:40.063Z,21.03
2018-11-27T01:43:49.429Z,21.10
2018-11-27T01:46:58.625Z,20.63
2018-11-27T01:50:10.445Z,21.17
2018-11-27T01:53:20.911Z,21.37
2018-11-27T01:56:30.909Z,21.23
2018-11-27T01:59:41.650Z,19.23
2018-11-27T02:02:52.197Z,20.37
2018-11-27T02:06:05.358Z,17.63
2018-11-27T02:09:31.256Z,20.87
2018-11-27T02:12:42.989Z,19.67
2018-11-27T02:15:52.226Z,20.13
2018-11-27T02:19:01.289Z,21.53
2018-11-27T02:22:10.376Z,20.97
2018-11-27T02:25:21.843Z,19.60
2018-11-27T02:28:31.828Z,21.60
2018-11-27T02:31:42.467Z,20.40
2018-11-27T02:34:53.128Z,22.83
2018-11-27T02:38:04.695Z,21.47
2018-11-27T02:41:13.875Z,21.93
2018-11-27T02:44:23.049Z,22.97
2018-11-27T02:47:32.389Z,22.27
2018-11-27T02:50:41.664Z,22.80
2018-11-27T02:53:50.768Z,23.23
2018-11-27T02:56:59.993Z,23.17
2018-11-27T03:00:13.720Z,23.13
2018-11-27T03:03:22.877Z,22.40
2018-11-27T03:06:32.092Z,21.87
2018-11-27T03:09:41.449Z,21.60
2018-11-27T03:12:50.528Z,20.43
2018-11-27T03:15:59.629Z,22.60
2018-11-27T03:19:08.950Z,20.83
2018-11-27T03:22:18.266Z,22.33
2018-11-27T03:25:27.550Z,19.80
2018-11-27T03:28:36.638Z,21.73
2018-11-27T03:31:45.881Z,22.33
2018-11-27T03:34:54.948Z,22.10
2018-11-27T03:38:04.121Z,22.10
2018-11-27T03:41:13.247Z,21.13
2018-11-27T03:44:25.312Z,20.47
2018-11-27T03:47:34.476Z,20.97
2018-11-27T03:50:43.967Z,20.63
2018-11-27T03:53:56.022Z,20.20
2018-11-27T03:57:05.846Z,20.80
2018-11-27T04:00:20.252Z,21.57
2018-11-27T04:03:29.333Z,20.77
2018-11-27T04:06:38.512Z,21.53
2018-11-27T04:09:47.686Z,20.67
2018-11-27T04:12:56.977Z,21.20
2018-11-27T04:16:06.074Z,19.80
2018-11-27T04:19:15.247Z,22.07
2018-11-27T04:22:24.573Z,21.40
2018-11-27T04:25:33.845Z,20.37
2018-11-27T04:28:43.071Z,21.00
2018-11-27T04:31:52.121Z,19.80
2018-11-27T04:35:01.523Z,17.17
2018-11-27T04:38:10.437Z,19.00
2018-11-27T04:41:19.732Z,20.17
2018-11-27T04:44:28.821Z,19.90
2018-11-27T04:47:37.927Z,20.53
2018-11-27T04:50:47.248Z,21.17
2018-11-27T04:53:56.449Z,20.27
2018-11-27T04:57:05.516Z,20.97
2018-11-27T05:00:21.842Z,20.13
2018-11-27T05:03:31.029Z,18.90
2018-11-27T05:06:40.288Z,17.53
2018-11-27T05:09:49.389Z,18.17
2018-11-27T05:12:58.530Z,20.60
2018-11-27T05:16:07.775Z,20.00
2018-11-27T05:19:17.046Z,19.70
2018-11-27T05:22:26.336Z,20.90
2018-11-27T05:25:35.664Z,19.77
2018-11-27T05:28:44.732Z,20.57
2018-11-27T05:31:53.839Z,18.80
2018-11-27T05:35:03.125Z,18.73
2018-11-27T05:38:12.438Z,18.70
2018-11-27T05:41:21.753Z,19.77
2018-11-27T05:44:30.957Z,18.73
2018-11-27T05:47:40.301Z,20.13
2018-11-27T05:50:49.543Z,20.07
2018-11-27T05:53:58.717Z,20.60
2018-11-27T05:57:07.789Z,19.80
2018-11-27T06:00:18.937Z,18.97
2018-11-27T06:03:28.177Z,19.67
2018-11-27T06:06:37.317Z,19.77
2018-11-27T06:09:46.400Z,20.47
2018-11-27T06:12:55.456Z,19.33
2018-11-27T06:16:04.748Z,21.37
2018-11-27T06:19:13.955Z,21.33
2018-11-27T06:22:23.256Z,20.47
2018-11-27T06:25:32.599Z,17.87
2018-11-27T06:28:41.797Z,19.53
2018-11-27T06:31:50.995Z,20.13
2018-11-27T06:35:00.323Z,21.73
2018-11-27T06:38:10.201Z,21.23
2018-11-27T06:41:19.446Z,21.07
2018-11-27T06:44:28.774Z,22.47
2018-11-27T06:47:38.056Z,19.50
2018-11-27T06:50:47.424Z,17.73
2018-11-27T06:53:56.608Z,19.53
2018-11-27T06:57:06.130Z,18.60
2018-11-27T07:00:17.936Z,18.33
2018-11-27T07:03:26.990Z,16.47
2018-11-27T07:06:36.319Z,18.07
2018-11-27T07:09:45.411Z,17.73
2018-11-27T07:13:25.944Z,17.40
2018-11-27T07:16:35.170Z,17.80
2018-11-27T07:19:44.407Z,16.57
2018-11-27T07:22:53.670Z,17.40
2018-11-27T07:26:02.926Z,17.13
2018-11-27T07:29:12.195Z,17.77
2018-11-27T07:32:21.417Z,17.73
2018-11-27T07:35:30.678Z,18.00
2018-11-27T07:38:40.025Z,17.63
2018-11-27T07:41:49.213Z,16.83
2018-11-27T07:44:58.417Z,18.30
2018-11-27T07:48:08.703Z,18.87
2018-11-27T07:51:17.912Z,19.07
2018-11-27T07:54:26.992Z,18.63
2018-11-27T07:57:36.324Z,18.60
2018-11-27T08:00:45.610Z,19.10
2018-11-27T08:03:54.930Z,19.70
2018-11-27T08:07:04.233Z,19.13
2018-11-27T08:10:15.617Z,17.77
2018-11-27T08:13:24.853Z,19.33
2018-11-27T08:16:34.025Z,18.77
2018-11-27T08:19:43.324Z,17.63
2018-11-27T08:22:52.522Z,18.90
2018-11-27T08:26:01.611Z,17.83
2018-11-27T08:29:10.780Z,18.33
2018-11-27T08:32:20.552Z,19.50
2018-11-27T08:35:30.296Z,19.23
2018-11-27T08:38:39.599Z,18.33
2018-11-27T08:41:48.941Z,19.53
2018-11-27T08:44:58.218Z,18.20
2018-11-27T08:48:07.428Z,18.70
2018-11-27T08:51:16.921Z,16.83
2018-11-27T08:54:26.141Z,17.97
2018-11-27T08:57:35.475Z,18.67
2018-11-27T09:00:44.821Z,19.43
2018-11-27T09:03:54.045Z,18.60
2018-11-27T09:07:03.280Z,18.47
2018-11-27T09:10:14.512Z,17.77
2018-11-27T09:13:23.736Z,18.73
2018-11-27T09:16:32.960Z,18.40
2018-11-27T09:19:42.089Z,17.90
2018-11-27T09:22:51.189Z,18.00
2018-11-27T09:26:00.488Z,16.17
2018-11-27T09:29:09.831Z,17.80
2018-11-27T09:32:19.039Z,14.83
2018-11-27T09:35:28.306Z,15.13
2018-11-27T09:38:37.683Z,15.27
2018-11-27T09:41:46.980Z,15.67
2018-11-27T09:44:56.277Z,15.00
2018-11-27T09:48:05.423Z,16.02
2018-11-27T09:51:14.601Z,16.27
2018-11-27T09:54:23.809Z,17.40
2018-11-27T09:57:33.090Z,16.53
2018-11-27T10:00:42.268Z,16.30
2018-11-27T10:03:51.482Z,18.63
2018-11-27T10:07:00.597Z,16.87
2018-11-27T10:10:12.557Z,17.23
2018-11-27T10:13:52.092Z,15.73
2018-11-27T10:17:01.165Z,15.80
2018-11-27T10:20:12.931Z,15.23
2018-11-27T10:23:23.650Z,17.13
2018-11-27T10:26:33.308Z,19.70
2018-11-27T10:29:48.807Z,20.43
2018-11-27T10:32:58.560Z,20.90
2018-11-27T10:36:08.137Z,19.23
2018-11-27T10:39:17.590Z,19.53
2018-11-27T10:42:30.073Z,18.50
2018-11-27T10:45:36.210Z,16.17
2018-11-27T10:48:45.331Z,14.30
2018-11-27T10:51:54.515Z,15.00
2018-11-27T10:55:04.410Z,16.23
2018-11-27T10:58:13.544Z,16.57
2018-11-27T11:01:28.075Z,15.83
2018-11-27T11:04:37.447Z,17.30
2018-11-27T11:07:46.620Z,15.07
2018-11-27T11:10:55.687Z,15.93
2018-11-27T11:14:04.986Z,14.80
2018-11-27T11:17:14.189Z,15.77
2018-11-27T11:20:23.701Z,15.73
2018-11-27T11:23:32.951Z,15.37
2018-11-27T11:29:46.254Z,17.85
2018-11-27T11:32:55.492Z,13.77
2018-11-27T11:36:04.701Z,12.20
2018-11-27T11:39:13.999Z,13.10
2018-11-27T11:42:23.156Z,14.60
2018-11-27T11:45:41.599Z,12.50
2018-11-27T11:48:50.733Z,13.03
2018-11-27T11:52:00.007Z,13.03
2018-11-27T11:55:12.215Z,13.57
2018-11-27T12:06:40.950Z,13.37
2018-11-27T12:17:22.229Z,13.77
2018-11-27T12:25:49.857Z,13.87
2018-11-27T12:43:27.327Z,15.10
2018-11-27T12:46:41.807Z,15.63
2018-11-27T12:49:52.477Z,17.80
2018-11-27T12:53:02.005Z,18.43
2018-11-27T12:59:25.374Z,18.60
2018-11-27T13:02:35.990Z,20.67
2018-11-27T13:15:52.075Z,17.20
2018-11-27T13:19:14.031Z,14.60
2018-11-27T13:25:57.396Z,16.40
2018-11-27T13:29:07.140Z,16.10
2018-11-27T13:41:31.385Z,12.97
2018-11-27T13:44:40.623Z,13.43
2018-11-27T13:47:49.845Z,14.60
2018-11-27T13:50:59.035Z,13.70
2018-11-27T13:54:08.441Z,13.67
2018-11-27T13:57:17.899Z,15.03
2018-11-27T14:00:27.096Z,14.37
2018-11-27T14:03:36.415Z,14.03
2018-11-27T14:06:45.757Z,13.67
2018-11-27T14:09:55.067Z,14.37
2018-11-27T14:13:04.604Z,13.43
2018-11-27T14:16:14.075Z,12.50
2018-11-27T14:19:23.366Z,13.80
2018-11-27T14:22:32.675Z,14.87
2018-11-27T14:25:41.825Z,14.03
2018-11-27T14:28:51.068Z,15.37
2018-11-27T14:32:00.221Z,15.23
2018-11-27T14:35:09.902Z,14.40
2018-11-27T14:38:19.425Z,15.50
2018-11-27T14:41:28.718Z,15.43
2018-11-27T14:44:37.958Z,15.63
2018-11-27T14:47:48.348Z,14.03
2018-11-27T14:50:57.504Z,14.10
2018-11-27T14:54:06.764Z,14.40
2018-11-27T14:57:16.067Z,14.70
2018-11-27T15:03:37.460Z,15.03
2018-11-27T15:06:46.728Z,14.73
2018-11-27T15:09:56.024Z,15.10
2018-11-27T15:13:05.806Z,13.97
2018-11-27T15:16:14.988Z,14.37
2018-11-27T15:19:24.125Z,17.90
2018-11-27T15:22:33.547Z,16.23
2018-11-27T15:25:42.878Z,16.00
2018-11-27T15:28:52.288Z,15.30
2018-11-27T15:32:01.477Z,15.37
2018-11-27T15:35:11.568Z,18.43
2018-11-27T15:38:20.788Z,19.40
2018-11-27T15:41:30.041Z,17.20
2018-11-27T15:44:39.277Z,18.77
2018-11-27T15:47:48.574Z,17.90
2018-11-27T15:50:57.741Z,15.73
2018-11-27T15:54:07.080Z,17.47
2018-11-27T15:57:16.312Z,13.33
2018-11-27T16:00:26.210Z,15.97
2018-11-27T16:03:35.433Z,14.93
2018-11-27T16:06:44.629Z,14.17
2018-11-27T16:09:54.029Z,14.63
2018-11-27T16:13:03.392Z,15.80
2018-11-27T16:16:12.746Z,15.20
2018-11-27T16:19:22.046Z,15.70
2018-11-27T16:22:31.224Z,16.10
2018-11-27T16:25:40.594Z,15.53
2018-11-27T16:28:49.853Z,15.77
2018-11-27T16:31:58.997Z,15.13
2018-11-27T16:35:15.270Z,16.00
2018-11-27T16:38:24.565Z,13.67
2018-11-27T16:41:33.709Z,14.57
2018-11-27T16:44:42.909Z,13.83
2018-11-27T16:47:52.271Z,14.40
2018-11-27T16:51:01.537Z,13.67
2018-11-27T16:54:10.955Z,15.87
2018-11-27T16:57:20.201Z,13.57
2018-11-27T17:00:31.483Z,14.00
2018-11-27T17:03:40.659Z,14.77
2018-11-27T17:06:50.042Z,14.30
2018-11-27T17:09:59.458Z,15.77
2018-11-27T17:13:09.597Z,14.33
2018-11-27T17:16:18.741Z,16.50
2018-11-27T17:19:28.045Z,15.70
2018-11-27T17:22:37.169Z,15.43
2018-11-27T17:25:46.513Z,16.00
2018-11-27T17:28:55.973Z,14.70
2018-11-27T17:32:05.694Z,15.20
2018-11-27T17:35:14.826Z,15.17
2018-11-27T17:38:24.214Z,16.07
2018-11-27T17:41:33.827Z,15.83
2018-11-27T17:44:43.026Z,17.07
2018-11-27T17:47:52.409Z,15.60
2018-11-27T17:51:01.683Z,15.70
2018-11-27T17:54:10.863Z,11.70
2018-11-27T17:57:19.996Z,14.57
2018-11-27T18:00:30.716Z,13.10
2018-11-27T18:03:39.925Z,14.43
2018-11-27T18:06:49.410Z,14.17
2018-11-27T18:09:58.672Z,13.97
2018-11-27T18:13:07.932Z,14.30
2018-11-27T18:16:17.074Z,14.60
2018-11-27T18:19:26.364Z,13.57
2018-11-27T18:22:35.575Z,13.70
2018-11-27T18:25:44.875Z,14.47
2018-11-27T18:28:54.047Z,14.07
2018-11-27T18:32:03.330Z,13.13
2018-11-27T18:35:15.817Z,14.13
2018-11-27T18:38:25.085Z,14.60
2018-11-27T18:41:34.421Z,16.90
2018-11-27T18:44:43.725Z,15.67
2018-11-27T18:47:53.016Z,13.73
2018-11-27T18:51:02.389Z,13.17
2018-11-27T18:54:11.576Z,12.17
2018-11-27T18:57:20.763Z,10.70
2018-11-27T19:00:31.321Z,11.77
2018-11-27T19:03:40.777Z,10.77
2018-11-27T19:06:50.009Z,9.97
2018-11-27T19:09:59.335Z,8.43
2018-11-27T19:13:08.681Z,9.43
2018-11-27T19:16:17.831Z,11.07
2018-11-27T19:19:27.041Z,11.30
2018-11-27T19:22:36.395Z,10.47
2018-11-27T19:25:45.814Z,11.33
2018-11-27T19:28:55.051Z,10.80
2018-11-27T19:32:04.596Z,10.93
2018-11-27T19:35:17.107Z,11.17
2018-11-27T19:38:26.310Z,11.40
2018-11-27T19:41:35.729Z,10.63
2018-11-27T19:44:45.088Z,11.40
2018-11-27T19:47:55.053Z,11.70
2018-11-27T19:51:04.361Z,12.17
2018-11-27T19:54:13.581Z,12.07
2018-11-27T19:57:22.957Z,12.13
2018-11-27T20:00:32.221Z,12.33
2018-11-27T20:03:41.592Z,12.37
2018-11-27T20:06:50.977Z,11.50
2018-11-27T20:10:00.122Z,11.70
2018-11-27T20:13:09.339Z,11.80
2018-11-27T20:16:18.697Z,11.33
2018-11-27T20:19:28.121Z,11.63
2018-11-27T20:22:37.432Z,11.23
2018-11-27T20:25:46.720Z,12.27
2018-11-27T20:28:56.411Z,12.97
2018-11-27T20:32:05.847Z,11.47
2018-11-27T20:35:15.165Z,11.60
2018-11-27T20:38:24.526Z,11.73
2018-11-27T20:41:33.649Z,10.63
2018-11-27T20:44:42.911Z,11.43
2018-11-27T20:51:15.222Z,10.53
2018-11-27T20:54:24.527Z,11.10
2018-11-27T20:57:34.064Z,10.53
2018-11-27T21:00:44.865Z,10.10
2018-11-27T21:03:54.155Z,10.43
2018-11-27T21:07:03.370Z,10.27
2018-11-27T21:10:13.485Z,10.97
2018-11-27T21:13:22.658Z,10.87
2018-11-27T21:16:31.977Z,11.83
2018-11-27T21:19:41.343Z,10.70
2018-11-27T21:22:50.783Z,11.90
2018-11-27T21:26:05.474Z,9.13
2018-11-27T21:29:14.678Z,11.87
2018-11-27T21:32:23.975Z,14.30
2018-11-27T21:35:33.148Z,12.63
2018-11-27T21:38:42.309Z,11.67
2018-11-27T21:41:51.690Z,13.73
2018-11-27T21:45:00.978Z,13.67
2018-11-27T21:48:10.925Z,13.27
2018-11-27T21:51:20.242Z,11.77
2018-11-27T21:54:29.380Z,12.53
2018-11-27T21:57:38.623Z,13.40
2018-11-27T22:00:48.046Z,11.70
2018-11-27T22:03:57.247Z,12.67
2018-11-27T22:07:06.670Z,12.60
2018-11-27T22:10:19.663Z,14.13
2018-11-27T22:13:28.817Z,12.77
2018-11-27T22:16:38.007Z,13.23
2018-11-27T22:19:47.409Z,13.33
2018-11-27T22:22:56.867Z,12.70
2018-11-27T22:26:06.256Z,13.73
2018-11-27T22:29:15.480Z,12.70
2018-11-27T22:32:24.868Z,14.03
2018-11-27T22:35:34.380Z,13.17
2018-11-27T22:38:43.664Z,14.57
2018-11-27T22:41:52.914Z,13.60
2018-11-27T22:45:02.356Z,13.77
2018-11-27T22:48:12.252Z,13.30
2018-11-27T22:51:21.222Z,13.30
2018-11-27T22:54:30.566Z,12.77
2018-11-27T22:57:39.811Z,14.13
2018-11-27T23:00:50.748Z,14.63
2018-11-27T23:03:59.903Z,13.23
2018-11-27T23:07:09.242Z,11.50
2018-11-27T23:10:18.448Z,10.93
2018-11-27T23:13:27.649Z,10.90
2018-11-27T23:16:36.862Z,11.77
2018-11-27T23:19:46.242Z,2.30
2018-11-27T23:22:55.366Z,10.23
2018-11-27T23:26:04.689Z,10.33
2018-11-27T23:29:13.973Z,10.77
2018-11-27T23:32:23.253Z,11.13
2018-11-27T23:35:32.548Z,11.27
2018-11-27T23:38:41.928Z,10.67
2018-11-27T23:41:51.230Z,8.87
2018-11-27T23:45:00.598Z,10.00
2018-11-27T23:48:09.905Z,10.37
2018-11-27T23:51:19.098Z,9.77
2018-11-27T23:54:28.222Z,9.73
2018-11-27T23:57:37.662Z,8.67
